createdAt,value
2023-05-19T00:01:48.563Z,4.93
2023-05-19T00:04:15.516Z,4.65
2023-05-19T00:06:42.519Z,5.20
2023-05-19T00:09:10.368Z,5.03
2023-05-19T00:11:38.618Z,4.78
2023-05-19T00:14:07.739Z,4.88
2023-05-19T00:16:34.752Z,5.35
2023-05-19T00:19:03.285Z,5.18
2023-05-19T00:21:31.288Z,4.68
2023-05-19T00:23:58.190Z,5.15
2023-05-19T00:26:26.851Z,4.35
2023-05-19T00:28:53.377Z,4.63
2023-05-19T00:31:19.830Z,5.55
2023-05-19T00:33:46.304Z,4.75
2023-05-19T00:36:12.916Z,4.35
2023-05-19T00:38:39.633Z,5.65
2023-05-19T00:41:07.095Z,6.88
2023-05-19T00:43:36.734Z,5.75
2023-05-19T00:46:03.929Z,5.45
2023-05-19T00:48:30.481Z,4.18
2023-05-19T00:51:06.343Z,5.90
2023-05-19T00:53:34.024Z,6.25
2023-05-19T00:56:01.222Z,6.38
2023-05-19T00:58:30.280Z,5.13
2023-05-19T01:01:06.717Z,6.95
2023-05-19T01:03:35.604Z,5.50
2023-05-19T01:06:05.587Z,5.47
2023-05-19T01:08:33.389Z,6.60
2023-05-19T01:11:00.500Z,5.68
2023-05-19T01:13:30.705Z,5.72
2023-05-19T01:16:32.168Z,5.53
2023-05-19T01:19:20.940Z,6.68
2023-05-19T01:22:13.086Z,4.90
2023-05-19T01:24:54.965Z,5.60
2023-05-19T01:27:48.063Z,5.60
2023-05-19T01:30:43.386Z,5.78
2023-05-19T01:33:14.607Z,4.95
2023-05-19T01:35:43.016Z,6.32
2023-05-19T01:38:12.681Z,6.93
2023-05-19T01:40:41.678Z,6.45
2023-05-19T01:43:10.090Z,6.03
2023-05-19T01:45:36.958Z,6.00
2023-05-19T01:48:04.831Z,6.72
2023-05-19T01:50:33.037Z,5.50
2023-05-19T01:53:00.658Z,5.45
2023-05-19T01:55:27.640Z,5.75
2023-05-19T01:58:06.242Z,5.15
2023-05-19T02:00:32.929Z,5.53
2023-05-19T02:03:26.487Z,5.65
2023-05-19T02:06:16.483Z,5.43
2023-05-19T02:08:47.926Z,5.97
2023-05-19T02:11:39.359Z,5.30
2023-05-19T02:14:14.012Z,6.22
2023-05-19T02:16:46.355Z,5.60
2023-05-19T02:19:27.116Z,5.45
2023-05-19T02:21:54.011Z,5.38
2023-05-19T02:24:22.677Z,5.30
2023-05-19T02:26:53.091Z,6.22
2023-05-19T02:29:20.662Z,5.40
2023-05-19T02:31:47.424Z,5.60
2023-05-19T02:34:14.077Z,6.30
2023-05-19T02:36:45.407Z,5.53
2023-05-19T02:39:12.579Z,5.75
2023-05-19T02:41:39.217Z,6.50
2023-05-19T02:44:05.729Z,5.35
2023-05-19T02:46:32.280Z,5.90
2023-05-19T02:48:59.186Z,5.63
2023-05-19T02:51:25.693Z,5.43
2023-05-19T02:53:52.149Z,5.10
2023-05-19T02:56:18.615Z,6.03
2023-05-19T02:58:45.054Z,4.63
2023-05-19T03:01:12.130Z,5.00
2023-05-19T03:03:38.651Z,4.60
2023-05-19T03:06:08.635Z,4.85
2023-05-19T03:08:36.232Z,4.72
2023-05-19T03:11:03.173Z,4.38
2023-05-19T03:13:29.833Z,4.60
2023-05-19T03:15:58.705Z,4.10
2023-05-19T03:18:26.384Z,5.53
2023-05-19T03:20:56.445Z,4.93
2023-05-19T03:23:23.000Z,4.20
2023-05-19T03:25:49.435Z,5.55
2023-05-19T03:28:15.953Z,5.55
2023-05-19T03:30:42.526Z,4.70
2023-05-19T03:33:09.070Z,4.78
2023-05-19T03:35:35.584Z,4.85
2023-05-19T03:38:02.049Z,5.47
2023-05-19T03:40:28.534Z,5.30
2023-05-19T03:42:55.017Z,6.35
2023-05-19T03:45:21.464Z,5.63
2023-05-19T03:47:48.009Z,5.22
2023-05-19T03:50:14.514Z,4.55
2023-05-19T03:52:46.565Z,4.60
2023-05-19T03:55:14.821Z,5.25
2023-05-19T03:57:43.418Z,4.88
2023-05-19T04:00:28.271Z,6.22
2023-05-19T04:02:55.089Z,4.70
2023-05-19T04:05:25.400Z,5.43
2023-05-19T04:07:55.630Z,5.07
2023-05-19T04:10:25.323Z,5.73
2023-05-19T04:12:52.267Z,3.97
2023-05-19T04:15:19.313Z,3.78
2023-05-19T04:17:46.525Z,5.07
2023-05-19T04:20:13.519Z,4.13
2023-05-19T04:22:39.994Z,4.18
2023-05-19T04:25:07.530Z,4.82
2023-05-19T04:27:36.685Z,4.47
2023-05-19T04:30:04.062Z,7.00
2023-05-19T04:32:31.017Z,4.53
2023-05-19T04:34:58.897Z,5.72
2023-05-19T04:37:26.407Z,4.65
2023-05-19T04:39:53.066Z,4.78
2023-05-19T04:42:19.785Z,5.82
2023-05-19T04:44:49.161Z,4.03
2023-05-19T04:47:15.916Z,5.05
2023-05-19T04:49:43.109Z,4.93
2023-05-19T04:52:11.110Z,4.75
2023-05-19T04:54:38.697Z,4.65
2023-05-19T04:57:05.934Z,5.10
2023-05-19T04:59:32.651Z,5.30
2023-05-19T05:01:59.185Z,4.97
2023-05-19T05:04:25.986Z,5.38
2023-05-19T05:06:52.442Z,4.90
2023-05-19T05:09:19.984Z,4.97
2023-05-19T05:11:46.714Z,5.28
2023-05-19T05:14:13.508Z,5.20
2023-05-19T05:16:40.906Z,4.65
2023-05-19T05:19:07.802Z,6.13
2023-05-19T05:21:34.722Z,5.15
2023-05-19T05:24:01.541Z,5.35
2023-05-19T05:26:31.687Z,4.30
2023-05-19T05:28:58.172Z,5.20
2023-05-19T05:31:24.668Z,4.90
2023-05-19T05:33:51.214Z,4.95
2023-05-19T05:36:17.701Z,6.28
2023-05-19T05:38:44.268Z,6.03
2023-05-19T05:41:10.760Z,7.10
2023-05-19T05:43:37.254Z,6.78
2023-05-19T05:46:03.812Z,6.40
2023-05-19T05:48:30.631Z,6.63
2023-05-19T05:50:57.990Z,5.75
2023-05-19T05:53:26.792Z,6.88
2023-05-19T05:55:53.667Z,6.68
2023-05-19T05:58:21.212Z,7.82
2023-05-19T06:00:51.397Z,6.95
2023-05-19T06:03:17.982Z,7.32
2023-05-19T06:05:44.685Z,6.78
2023-05-19T06:08:11.263Z,5.93
2023-05-19T06:10:39.061Z,6.95
2023-05-19T06:13:05.617Z,5.78
2023-05-19T06:15:32.271Z,6.65
2023-05-19T06:17:59.297Z,5.82
2023-05-19T06:20:26.293Z,6.20
2023-05-19T06:22:52.798Z,5.70
2023-05-19T06:25:20.565Z,5.63
2023-05-19T06:27:47.097Z,5.43
2023-05-19T06:30:13.833Z,5.82
2023-05-19T06:32:40.587Z,6.50
2023-05-19T06:35:07.460Z,6.38
2023-05-19T06:37:33.904Z,7.82
2023-05-19T06:40:00.477Z,7.15
2023-05-19T06:42:26.940Z,7.00
2023-05-19T06:44:53.533Z,6.38
2023-05-19T06:47:20.049Z,5.63
2023-05-19T06:49:50.510Z,7.15
2023-05-19T06:52:17.260Z,6.50
2023-05-19T06:54:43.796Z,7.28
2023-05-19T06:57:10.272Z,5.72
2023-05-19T06:59:37.575Z,7.25
2023-05-19T07:02:04.755Z,7.28
2023-05-19T07:04:31.310Z,6.80
2023-05-19T07:06:57.774Z,9.70
2023-05-19T07:09:24.413Z,7.07
2023-05-19T07:11:50.978Z,7.53
2023-05-19T07:14:18.358Z,7.75
2023-05-19T07:16:44.989Z,7.03
2023-05-19T07:19:11.557Z,6.47
2023-05-19T07:21:38.286Z,6.47
2023-05-19T07:24:04.805Z,6.82
2023-05-19T07:26:31.235Z,7.00
2023-05-19T07:28:57.872Z,7.03
2023-05-19T07:31:24.466Z,6.40
2023-05-19T07:33:52.294Z,6.82
2023-05-19T07:36:21.001Z,7.35
2023-05-19T07:38:47.680Z,10.25
2023-05-19T07:41:14.449Z,5.97
2023-05-19T07:43:42.656Z,6.72
2023-05-19T07:46:09.179Z,7.70
2023-05-19T07:48:35.973Z,7.90
2023-05-19T07:51:02.637Z,6.00
2023-05-19T07:53:29.118Z,7.00
2023-05-19T07:55:58.399Z,7.32
2023-05-19T07:58:25.432Z,6.10
2023-05-19T08:00:53.314Z,6.75
2023-05-19T08:03:20.805Z,6.38
2023-05-19T08:05:47.682Z,7.63
2023-05-19T08:08:16.604Z,7.50
2023-05-19T08:10:43.495Z,8.20
2023-05-19T08:13:09.962Z,7.88
2023-05-19T08:15:37.022Z,6.35
2023-05-19T08:18:05.302Z,8.02
2023-05-19T08:20:32.530Z,7.75
2023-05-19T08:22:59.351Z,9.48
2023-05-19T08:25:25.826Z,9.10
2023-05-19T08:27:52.265Z,6.88
2023-05-19T08:30:18.826Z,8.20
2023-05-19T08:32:45.503Z,7.38
2023-05-19T08:35:12.157Z,7.57
2023-05-19T08:37:38.757Z,6.78
2023-05-19T08:40:06.202Z,6.95
2023-05-19T08:42:33.863Z,8.18
2023-05-19T08:45:02.085Z,8.48
2023-05-19T08:47:29.034Z,6.72
2023-05-19T08:50:05.108Z,6.50
2023-05-19T08:52:47.881Z,8.02
2023-05-19T08:55:41.102Z,7.28
2023-05-19T08:58:08.639Z,7.57
2023-05-19T09:00:35.794Z,10.63
2023-05-19T09:03:17.364Z,7.10
2023-05-19T09:05:46.661Z,7.18
2023-05-19T09:08:13.861Z,7.95
2023-05-19T09:10:40.331Z,7.13
2023-05-19T09:13:06.948Z,7.47
2023-05-19T09:15:36.708Z,8.07
2023-05-19T09:18:08.962Z,6.53
2023-05-19T09:20:43.862Z,7.35
2023-05-19T09:23:17.815Z,8.15
2023-05-19T09:25:51.322Z,8.82
2023-05-19T09:28:23.747Z,7.45
2023-05-19T09:30:59.291Z,8.57
2023-05-19T09:33:25.924Z,8.35
2023-05-19T09:35:55.207Z,6.88
2023-05-19T09:38:23.673Z,8.27
2023-05-19T09:40:50.450Z,7.93
2023-05-19T09:43:16.956Z,8.85
2023-05-19T09:45:43.572Z,7.65
2023-05-19T09:48:10.190Z,8.27
2023-05-19T09:50:37.407Z,8.15
2023-05-19T09:53:04.077Z,7.30
2023-05-19T09:55:51.115Z,7.05
2023-05-19T09:58:21.566Z,7.30
2023-05-19T10:00:48.527Z,7.78
2023-05-19T10:03:17.662Z,7.32
2023-05-19T10:05:45.229Z,6.68
2023-05-19T10:08:12.439Z,6.85
2023-05-19T10:10:39.084Z,7.30
2023-05-19T10:13:06.381Z,7.05
2023-05-19T10:15:36.112Z,7.07
2023-05-19T10:18:06.998Z,8.05
2023-05-19T10:20:35.207Z,7.10
2023-05-19T10:23:03.175Z,7.32
2023-05-19T10:25:34.549Z,8.38
2023-05-19T10:28:08.907Z,7.50
2023-05-19T10:30:44.882Z,7.00
2023-05-19T10:33:17.286Z,7.20
2023-05-19T10:36:21.376Z,7.32
2023-05-19T10:38:58.815Z,7.93
2023-05-19T10:41:45.005Z,7.72
2023-05-19T10:44:39.422Z,7.85
2023-05-19T10:47:12.045Z,6.60
2023-05-19T10:49:39.736Z,8.38
2023-05-19T10:52:21.450Z,8.05
2023-05-19T10:54:47.994Z,7.93
2023-05-19T10:57:17.593Z,8.13
2023-05-19T10:59:47.397Z,8.40
2023-05-19T11:02:43.180Z,7.88
2023-05-19T11:05:14.444Z,8.98
2023-05-19T11:07:43.617Z,9.73
2023-05-19T11:10:10.650Z,8.65
2023-05-19T11:12:52.053Z,8.10
2023-05-19T11:15:19.211Z,7.93
2023-05-19T11:17:48.741Z,7.43
2023-05-19T11:20:26.346Z,8.10
2023-05-19T11:23:09.416Z,10.07
2023-05-19T11:25:49.397Z,8.82
2023-05-19T11:28:21.427Z,8.55
2023-05-19T11:30:52.187Z,7.72
2023-05-19T11:35:53.843Z,8.63
2023-05-19T11:38:23.713Z,8.15
2023-05-19T11:40:53.382Z,8.93
2023-05-19T11:43:22.717Z,9.68
2023-05-19T11:45:50.250Z,8.13
2023-05-19T11:48:17.557Z,9.27
2023-05-19T11:50:46.060Z,8.98
2023-05-19T11:53:20.672Z,8.27
2023-05-19T11:55:56.485Z,7.68
2023-05-19T11:58:27.811Z,7.47
2023-05-19T12:00:55.216Z,7.75
2023-05-19T12:03:26.400Z,8.35
2023-05-19T12:05:53.704Z,8.52
2023-05-19T12:08:21.488Z,8.60
2023-05-19T12:10:51.876Z,10.70
2023-05-19T12:13:19.618Z,8.43
2023-05-19T12:15:46.346Z,11.77
2023-05-19T12:18:12.871Z,9.30
2023-05-19T12:20:39.556Z,9.48
2023-05-19T12:23:06.413Z,10.10
2023-05-19T12:25:33.176Z,10.55
2023-05-19T12:28:05.639Z,9.38
2023-05-19T12:30:33.369Z,8.68
2023-05-19T12:33:02.012Z,9.68
2023-05-19T12:35:30.595Z,8.65
2023-05-19T12:37:57.804Z,9.68
2023-05-19T12:40:24.595Z,9.98
2023-05-19T12:42:53.271Z,8.57
2023-05-19T12:45:22.265Z,9.60
2023-05-19T12:47:49.634Z,9.07
2023-05-19T12:50:16.196Z,9.80
2023-05-19T12:52:46.516Z,8.82
2023-05-19T12:55:17.372Z,8.45
2023-05-19T12:57:48.719Z,11.77
2023-05-19T13:00:28.531Z,9.60
2023-05-19T13:03:01.836Z,9.90
2023-05-19T13:05:29.928Z,9.73
2023-05-19T13:08:13.281Z,10.43
2023-05-19T13:10:56.709Z,11.00
2023-05-19T13:13:23.219Z,8.90
2023-05-19T13:15:49.683Z,9.90
2023-05-19T13:18:17.896Z,9.95
2023-05-19T13:20:45.592Z,9.70
2023-05-19T13:23:13.519Z,9.70
2023-05-19T13:25:41.499Z,11.60
2023-05-19T13:28:08.999Z,10.13
2023-05-19T13:30:38.429Z,9.55
2023-05-19T13:33:05.189Z,11.18
2023-05-19T13:35:36.963Z,10.73
2023-05-19T13:38:09.473Z,9.68
2023-05-19T13:40:36.661Z,9.65
2023-05-19T13:43:04.229Z,9.30
2023-05-19T13:45:30.875Z,10.43
2023-05-19T13:47:57.428Z,10.13
2023-05-19T13:50:24.034Z,10.07
2023-05-19T13:52:50.596Z,10.15
2023-05-19T13:55:17.425Z,8.48
2023-05-19T13:57:44.342Z,8.80
2023-05-19T14:00:11.463Z,8.48
2023-05-19T14:02:38.244Z,7.57
2023-05-19T14:05:06.553Z,7.65
2023-05-19T14:07:34.789Z,7.72
2023-05-19T14:10:02.836Z,7.85
2023-05-19T14:12:38.005Z,7.70
2023-05-19T14:15:14.086Z,6.57
2023-05-19T14:17:40.903Z,8.20
2023-05-19T14:20:08.420Z,6.95
2023-05-19T14:22:35.203Z,6.68
2023-05-19T14:25:02.417Z,6.75
2023-05-19T14:27:29.077Z,7.65
2023-05-19T14:29:55.615Z,6.00
2023-05-19T14:32:22.368Z,6.75
2023-05-19T14:34:52.754Z,7.05
2023-05-19T14:37:20.187Z,7.60
2023-05-19T14:39:46.882Z,6.18
2023-05-19T14:42:13.447Z,5.90
2023-05-19T14:44:39.922Z,7.07
2023-05-19T14:47:07.385Z,5.30
2023-05-19T14:49:34.042Z,5.53
2023-05-19T14:52:00.714Z,5.10
2023-05-19T14:54:27.185Z,5.93
2023-05-19T14:56:53.681Z,4.72
2023-05-19T14:59:21.623Z,5.25
2023-05-19T15:01:48.186Z,5.50
2023-05-19T15:04:14.889Z,4.40
2023-05-19T15:06:41.666Z,5.43
2023-05-19T15:09:08.402Z,4.97
2023-05-19T15:11:34.970Z,5.15
2023-05-19T15:14:01.544Z,4.68
2023-05-19T15:16:28.310Z,3.97
2023-05-19T15:18:54.941Z,3.95
2023-05-19T15:21:21.405Z,4.13
2023-05-19T15:23:47.879Z,3.65
2023-05-19T15:26:14.398Z,5.38
2023-05-19T15:28:41.077Z,5.40
2023-05-19T15:31:07.775Z,5.80
2023-05-19T15:33:34.869Z,6.53
2023-05-19T15:36:01.344Z,5.00
2023-05-19T15:38:29.837Z,6.45
2023-05-19T15:40:56.647Z,4.85
2023-05-19T15:43:23.238Z,6.75
2023-05-19T15:45:54.903Z,5.85
2023-05-19T15:48:21.452Z,5.97
2023-05-19T15:50:48.788Z,6.07
2023-05-19T15:53:15.411Z,6.63
2023-05-19T15:55:41.902Z,6.60
2023-05-19T15:58:08.852Z,5.95
2023-05-19T16:00:35.534Z,5.75
2023-05-19T16:03:02.316Z,5.78
2023-05-19T16:05:28.879Z,5.60
2023-05-19T16:07:55.321Z,6.25
2023-05-19T16:10:21.838Z,6.25
2023-05-19T16:12:48.310Z,7.18
2023-05-19T16:15:14.865Z,7.10
2023-05-19T16:17:41.556Z,7.45
2023-05-19T16:20:20.024Z,5.65
2023-05-19T16:22:46.499Z,5.82
2023-05-19T16:25:13.189Z,6.57
2023-05-19T16:27:39.705Z,6.07
2023-05-19T16:30:07.040Z,6.13
2023-05-19T16:32:33.941Z,7.13
2023-05-19T16:35:00.681Z,6.75
2023-05-19T16:37:27.144Z,7.10
2023-05-19T16:39:53.636Z,6.90
2023-05-19T16:42:20.137Z,8.43
2023-05-19T16:44:46.851Z,10.52
2023-05-19T16:47:13.457Z,7.50
2023-05-19T16:49:40.856Z,6.75
2023-05-19T16:52:08.069Z,6.10
2023-05-19T16:54:34.827Z,7.55
2023-05-19T16:57:01.415Z,7.75
2023-05-19T16:59:27.901Z,9.73
2023-05-19T17:01:55.962Z,8.55
2023-05-19T17:04:22.846Z,10.45
2023-05-19T17:06:49.367Z,9.80
2023-05-19T17:09:15.846Z,10.35
2023-05-19T17:11:42.303Z,8.57
2023-05-19T17:14:09.205Z,8.50
2023-05-19T17:16:36.753Z,10.70
2023-05-19T17:19:04.160Z,8.52
2023-05-19T17:21:31.714Z,11.35
2023-05-19T17:23:58.178Z,9.23
2023-05-19T17:26:24.620Z,9.05
2023-05-19T17:28:51.248Z,9.65
2023-05-19T17:31:18.376Z,8.00
2023-05-19T17:33:44.932Z,8.02
2023-05-19T17:36:11.662Z,7.93
2023-05-19T17:38:40.399Z,7.22
2023-05-19T17:41:11.041Z,7.05
2023-05-19T17:43:38.226Z,8.93
2023-05-19T17:46:05.361Z,6.97
2023-05-19T17:48:32.078Z,8.70
2023-05-19T17:50:59.236Z,7.70
2023-05-19T17:53:26.245Z,6.88
2023-05-19T17:55:58.277Z,8.45
2023-05-19T17:58:25.757Z,7.97
2023-05-19T18:00:52.523Z,8.25
2023-05-19T18:03:19.715Z,8.20
2023-05-19T18:05:47.201Z,7.45
2023-05-19T18:08:14.785Z,8.35
2023-05-19T18:10:42.697Z,6.82
2023-05-19T18:13:18.308Z,7.57
2023-05-19T18:15:44.787Z,7.90
2023-05-19T18:18:11.725Z,6.80
2023-05-19T18:20:39.363Z,7.68
2023-05-19T18:23:06.060Z,8.25
2023-05-19T18:25:32.513Z,7.72
2023-05-19T18:27:59.028Z,7.15
2023-05-19T18:30:25.576Z,6.60
2023-05-19T18:32:52.118Z,7.82
2023-05-19T18:35:20.727Z,7.30
2023-05-19T18:37:47.250Z,7.85
2023-05-19T18:40:13.710Z,7.82
2023-05-19T18:42:40.180Z,6.47
2023-05-19T18:45:07.112Z,6.85
2023-05-19T18:47:33.557Z,7.28
2023-05-19T18:50:00.062Z,7.43
2023-05-19T18:52:28.246Z,8.73
2023-05-19T18:54:55.043Z,7.60
2023-05-19T18:57:21.509Z,7.93
2023-05-19T18:59:47.954Z,7.25
2023-05-19T19:02:15.162Z,8.63
2023-05-19T19:04:41.653Z,9.18
2023-05-19T19:07:08.125Z,8.60
2023-05-19T19:09:34.627Z,7.70
2023-05-19T19:12:01.059Z,10.50
2023-05-19T19:14:27.497Z,10.35
2023-05-19T19:16:54.044Z,10.63
2023-05-19T19:19:20.684Z,8.98
2023-05-19T19:21:47.135Z,10.57
2023-05-19T19:24:13.721Z,8.88
2023-05-19T19:26:40.358Z,10.25
2023-05-19T19:29:06.832Z,10.77
2023-05-19T19:31:33.403Z,8.77
2023-05-19T19:34:03.610Z,7.82
2023-05-19T19:36:30.126Z,7.75
2023-05-19T19:38:56.680Z,9.25
2023-05-19T19:41:23.201Z,8.32
2023-05-19T19:43:50.873Z,9.57
2023-05-19T19:46:17.401Z,7.55
2023-05-19T19:48:43.971Z,8.10
2023-05-19T19:51:10.420Z,9.60
2023-05-19T19:53:36.917Z,8.60
2023-05-19T19:56:04.885Z,8.30
2023-05-19T19:58:31.354Z,9.32
2023-05-19T20:01:03.078Z,8.68
2023-05-19T20:03:29.920Z,8.95
2023-05-19T20:05:56.903Z,9.00
2023-05-19T20:08:24.557Z,8.55
2023-05-19T20:10:51.220Z,9.80
2023-05-19T20:13:18.980Z,8.57
2023-05-19T20:15:46.876Z,8.90
2023-05-19T20:18:13.488Z,8.25
2023-05-19T20:20:40.887Z,8.98
2023-05-19T20:23:07.995Z,9.77
2023-05-19T20:25:53.666Z,8.43
2023-05-19T20:28:28.098Z,9.40
2023-05-19T20:30:54.565Z,10.32
2023-05-19T20:33:21.216Z,9.73
2023-05-19T20:35:47.732Z,11.00
2023-05-19T20:38:14.223Z,11.05
2023-05-19T20:40:40.811Z,10.02
2023-05-19T20:43:07.324Z,10.23
2023-05-19T20:45:34.069Z,11.13
2023-05-19T20:48:02.649Z,10.23
2023-05-19T20:50:29.170Z,11.27
2023-05-19T20:52:55.655Z,10.93
2023-05-19T20:55:22.100Z,11.38
2023-05-19T20:57:48.650Z,10.65
2023-05-19T21:00:15.249Z,13.30
2023-05-19T21:02:41.724Z,13.98
2023-05-19T21:05:08.524Z,12.38
2023-05-19T21:07:35.133Z,12.40
2023-05-19T21:10:01.621Z,12.30
2023-05-19T21:12:33.725Z,13.25
2023-05-19T21:15:01.397Z,11.60
2023-05-19T21:17:27.986Z,12.10
2023-05-19T21:19:57.806Z,12.32
2023-05-19T21:22:25.465Z,13.50
2023-05-19T21:24:52.172Z,13.52
2023-05-19T21:27:19.109Z,11.75
2023-05-19T21:29:46.306Z,11.23
2023-05-19T21:32:13.517Z,11.95
2023-05-19T21:34:40.131Z,13.82
2023-05-19T21:37:06.992Z,13.05
2023-05-19T21:39:33.415Z,11.85
2023-05-19T21:41:59.905Z,13.70
2023-05-19T21:44:26.703Z,13.50
2023-05-19T21:46:54.216Z,12.82
2023-05-19T21:49:21.056Z,14.60
2023-05-19T21:51:48.413Z,14.90
2023-05-19T21:54:15.526Z,14.10
2023-05-19T21:56:43.065Z,13.27
2023-05-19T21:59:12.023Z,13.60
2023-05-19T22:01:40.488Z,15.52
2023-05-19T22:04:10.015Z,14.80
2023-05-19T22:06:36.477Z,15.15
2023-05-19T22:09:03.319Z,15.98
2023-05-19T22:11:29.748Z,16.52
2023-05-19T22:13:56.327Z,17.00
2023-05-19T22:16:24.289Z,15.85
2023-05-19T22:18:51.133Z,18.88
2023-05-19T22:21:17.894Z,17.10
2023-05-19T22:23:44.766Z,16.48
2023-05-19T22:26:11.248Z,16.20
2023-05-19T22:28:40.731Z,17.52
2023-05-19T22:31:07.288Z,16.95
2023-05-19T22:33:33.932Z,18.85
2023-05-19T22:36:00.817Z,18.80
2023-05-19T22:38:27.316Z,16.77
2023-05-19T22:40:53.978Z,17.05
2023-05-19T22:43:20.458Z,14.88
2023-05-19T22:45:47.154Z,16.60
2023-05-19T22:48:13.837Z,18.95
2023-05-19T22:50:40.608Z,17.08
2023-05-19T22:53:07.092Z,17.85
2023-05-19T22:55:33.808Z,16.98
2023-05-19T22:58:03.551Z,16.60
2023-05-19T23:00:30.076Z,16.38
2023-05-19T23:02:58.184Z,16.80
2023-05-19T23:05:24.983Z,18.20
2023-05-19T23:07:51.525Z,19.05
2023-05-19T23:10:18.150Z,19.95
2023-05-19T23:12:45.462Z,23.70
2023-05-19T23:15:12.031Z,20.70
2023-05-19T23:17:38.542Z,21.42
2023-05-19T23:20:05.774Z,19.65
2023-05-19T23:22:32.328Z,20.48
2023-05-19T23:24:58.878Z,21.33
2023-05-19T23:27:25.339Z,22.40
2023-05-19T23:29:51.781Z,19.25
2023-05-19T23:32:18.328Z,19.65
2023-05-19T23:34:47.205Z,20.13
2023-05-19T23:37:13.699Z,20.23
2023-05-19T23:39:40.355Z,22.92
2023-05-19T23:42:06.845Z,20.75
2023-05-19T23:44:33.281Z,20.73
2023-05-19T23:46:59.806Z,22.05
2023-05-19T23:49:26.475Z,20.33
2023-05-19T23:51:53.006Z,22.13
2023-05-19T23:54:19.496Z,18.45
2023-05-19T23:56:46.113Z,20.23
2023-05-19T23:59:12.594Z,20.23
